sensor_id;sensor_type;location;lat;lon;timestamp;P1;durP1;ratioP1;P2;durP2;ratioP2
64500;SDS011;50874;24.150;-110.320;2023-07-20T00:01:27;5.63;;;2.28;;
64500;SDS011;50874;24.150;-110.320;2023-07-20T00:03:53;3.70;;;2.00;;
64500;SDS011;50874;24.150;-110.320;2023-07-20T00:06:21;7.65;;;2.60;;
64500;SDS011;50874;24.150;-110.320;2023-07-20T00:08:53;4.82;;;2.13;;
64500;SDS011;50874;24.150;-110.320;2023-07-20T00:11:20;12.63;;;2.55;;
64500;SDS011;50874;24.150;-110.320;2023-07-20T00:13:50;7.72;;;3.03;;
64500;SDS011;50874;24.150;-110.320;2023-07-20T00:16:17;11.38;;;3.15;;
64500;SDS011;50874;24.150;-110.320;2023-07-20T00:18:44;10.60;;;2.95;;
64500;SDS011;50874;24.150;-110.320;2023-07-20T00:21:10;9.63;;;2.38;;
64500;SDS011;50874;24.150;-110.320;2023-07-20T00:23:37;11.93;;;2.78;;
64500;SDS011;50874;24.150;-110.320;2023-07-20T00:26:04;11.98;;;3.25;;
64500;SDS011;50874;24.150;-110.320;2023-07-20T00:28:30;6.15;;;2.85;;
64500;SDS011;50874;24.150;-110.320;2023-07-20T00:30:58;10.57;;;2.85;;
64500;SDS011;50874;24.150;-110.320;2023-07-20T00:33:26;9.57;;;2.60;;
64500;SDS011;50874;24.150;-110.320;2023-07-20T00:35:52;8.05;;;2.75;;
64500;SDS011;50874;24.150;-110.320;2023-07-20T00:38:19;9.65;;;2.30;;
64500;SDS011;50874;24.150;-110.320;2023-07-20T00:40:46;6.53;;;2.53;;
64500;SDS011;50874;24.150;-110.320;2023-07-20T00:43:13;5.57;;;2.35;;
64500;SDS011;50874;24.150;-110.320;2023-07-20T00:45:40;8.20;;;2.50;;
64500;SDS011;50874;24.150;-110.320;2023-07-20T00:48:13;13.43;;;2.72;;
64500;SDS011;50874;24.150;-110.320;2023-07-20T00:50:44;6.85;;;2.75;;
64500;SDS011;50874;24.150;-110.320;2023-07-20T00:53:12;9.25;;;2.65;;
64500;SDS011;50874;24.150;-110.320;2023-07-20T00:55:39;8.65;;;2.40;;
64500;SDS011;50874;24.150;-110.320;2023-07-20T00:58:05;6.05;;;2.55;;
64500;SDS011;50874;24.150;-110.320;2023-07-20T01:00:32;10.90;;;2.30;;
64500;SDS011;50874;24.150;-110.320;2023-07-20T01:02:58;5.47;;;2.40;;
64500;SDS011;50874;24.150;-110.320;2023-07-20T01:05:26;4.68;;;2.33;;
64500;SDS011;50874;24.150;-110.320;2023-07-20T01:08:08;8.85;;;2.42;;
64500;SDS011;50874;24.150;-110.320;2023-07-20T01:10:43;8.15;;;2.40;;
64500;SDS011;50874;24.150;-110.320;2023-07-20T01:13:26;8.52;;;2.78;;
64500;SDS011;50874;24.150;-110.320;2023-07-20T01:15:56;9.50;;;2.15;;
64500;SDS011;50874;24.150;-110.320;2023-07-20T01:18:26;6.38;;;2.47;;
64500;SDS011;50874;24.150;-110.320;2023-07-20T01:21:12;9.98;;;3.05;;
64500;SDS011;50874;24.150;-110.320;2023-07-20T01:23:56;10.07;;;3.08;;
64500;SDS011;50874;24.150;-110.320;2023-07-20T01:29:11;5.47;;;2.10;;
64500;SDS011;50874;24.150;-110.320;2023-07-20T01:31:51;9.20;;;2.67;;
64500;SDS011;50874;24.150;-110.320;2023-07-20T01:34:19;10.25;;;2.45;;
64500;SDS011;50874;24.150;-110.320;2023-07-20T01:36:49;7.45;;;2.58;;
64500;SDS011;50874;24.150;-110.320;2023-07-20T01:39:18;8.25;;;2.60;;
64500;SDS011;50874;24.150;-110.320;2023-07-20T01:41:46;8.48;;;3.13;;
64500;SDS011;50874;24.150;-110.320;2023-07-20T01:44:13;8.30;;;2.28;;
64500;SDS011;50874;24.150;-110.320;2023-07-20T01:46:39;5.28;;;2.35;;
64500;SDS011;50874;24.150;-110.320;2023-07-20T01:49:06;9.15;;;2.22;;
64500;SDS011;50874;24.150;-110.320;2023-07-20T01:51:32;7.82;;;2.25;;
64500;SDS011;50874;24.150;-110.320;2023-07-20T01:53:59;10.93;;;2.95;;
64500;SDS011;50874;24.150;-110.320;2023-07-20T01:56:25;8.50;;;2.53;;
64500;SDS011;50874;24.150;-110.320;2023-07-20T01:58:52;10.23;;;2.90;;
64500;SDS011;50874;24.150;-110.320;2023-07-20T02:01:18;14.50;;;2.72;;
64500;SDS011;50874;24.150;-110.320;2023-07-20T02:03:45;4.53;;;2.17;;
64500;SDS011;50874;24.150;-110.320;2023-07-20T02:06:11;14.38;;;2.97;;
64500;SDS011;50874;24.150;-110.320;2023-07-20T02:08:38;11.48;;;3.60;;
64500;SDS011;50874;24.150;-110.320;2023-07-20T02:11:04;11.30;;;2.85;;
64500;SDS011;50874;24.150;-110.320;2023-07-20T02:13:31;4.70;;;2.63;;
64500;SDS011;50874;24.150;-110.320;2023-07-20T02:15:57;4.57;;;2.50;;
64500;SDS011;50874;24.150;-110.320;2023-07-20T02:18:24;6.55;;;2.50;;
64500;SDS011;50874;24.150;-110.320;2023-07-20T02:20:52;9.75;;;2.92;;
64500;SDS011;50874;24.150;-110.320;2023-07-20T02:23:19;12.43;;;2.80;;
64500;SDS011;50874;24.150;-110.320;2023-07-20T02:25:46;6.75;;;2.47;;
64500;SDS011;50874;24.150;-110.320;2023-07-20T02:28:15;24.10;;;3.58;;
64500;SDS011;50874;24.150;-110.320;2023-07-20T02:30:42;11.13;;;3.00;;
64500;SDS011;50874;24.150;-110.320;2023-07-20T02:33:08;13.05;;;3.55;;
64500;SDS011;50874;24.150;-110.320;2023-07-20T02:35:35;9.20;;;3.08;;
64500;SDS011;50874;24.150;-110.320;2023-07-20T02:38:01;8.50;;;3.67;;
64500;SDS011;50874;24.150;-110.320;2023-07-20T02:40:29;15.95;;;2.88;;
64500;SDS011;50874;24.150;-110.320;2023-07-20T02:42:56;5.85;;;2.85;;
64500;SDS011;50874;24.150;-110.320;2023-07-20T02:45:22;9.00;;;3.17;;
64500;SDS011;50874;24.150;-110.320;2023-07-20T02:47:49;7.38;;;2.72;;
64500;SDS011;50874;24.150;-110.320;2023-07-20T02:50:15;6.95;;;2.83;;
64500;SDS011;50874;24.150;-110.320;2023-07-20T02:52:42;9.68;;;2.40;;
64500;SDS011;50874;24.150;-110.320;2023-07-20T02:55:08;11.75;;;3.63;;
64500;SDS011;50874;24.150;-110.320;2023-07-20T02:57:35;7.70;;;2.90;;
64500;SDS011;50874;24.150;-110.320;2023-07-20T03:00:02;8.45;;;2.95;;
64500;SDS011;50874;24.150;-110.320;2023-07-20T03:02:31;6.78;;;3.03;;
64500;SDS011;50874;24.150;-110.320;2023-07-20T03:04:57;9.57;;;3.13;;
64500;SDS011;50874;24.150;-110.320;2023-07-20T03:07:24;9.07;;;3.55;;
64500;SDS011;50874;24.150;-110.320;2023-07-20T03:09:54;8.90;;;2.85;;
64500;SDS011;50874;24.150;-110.320;2023-07-20T03:12:20;11.05;;;3.47;;
64500;SDS011;50874;24.150;-110.320;2023-07-20T03:14:47;7.93;;;2.90;;
64500;SDS011;50874;24.150;-110.320;2023-07-20T03:17:13;8.75;;;3.08;;
64500;SDS011;50874;24.150;-110.320;2023-07-20T03:19:40;9.68;;;3.78;;
64500;SDS011;50874;24.150;-110.320;2023-07-20T03:22:07;13.18;;;3.65;;
64500;SDS011;50874;24.150;-110.320;2023-07-20T03:24:34;15.68;;;3.47;;
64500;SDS011;50874;24.150;-110.320;2023-07-20T03:27:00;9.82;;;3.80;;
64500;SDS011;50874;24.150;-110.320;2023-07-20T03:29:27;11.05;;;3.80;;
64500;SDS011;50874;24.150;-110.320;2023-07-20T03:31:53;8.43;;;3.55;;
64500;SDS011;50874;24.150;-110.320;2023-07-20T03:34:20;12.02;;;3.55;;
64500;SDS011;50874;24.150;-110.320;2023-07-20T03:36:46;10.98;;;3.80;;
64500;SDS011;50874;24.150;-110.320;2023-07-20T03:39:13;9.23;;;4.00;;
64500;SDS011;50874;24.150;-110.320;2023-07-20T03:41:39;6.78;;;3.22;;
64500;SDS011;50874;24.150;-110.320;2023-07-20T03:44:06;10.60;;;3.78;;
64500;SDS011;50874;24.150;-110.320;2023-07-20T03:46:32;13.35;;;2.88;;
64500;SDS011;50874;24.150;-110.320;2023-07-20T03:48:59;10.05;;;3.58;;
64500;SDS011;50874;24.150;-110.320;2023-07-20T03:51:26;11.23;;;3.97;;
64500;SDS011;50874;24.150;-110.320;2023-07-20T03:53:52;10.35;;;3.92;;
64500;SDS011;50874;24.150;-110.320;2023-07-20T03:56:19;13.98;;;3.60;;
64500;SDS011;50874;24.150;-110.320;2023-07-20T03:58:45;7.80;;;3.70;;
64500;SDS011;50874;24.150;-110.320;2023-07-20T04:01:12;7.88;;;3.47;;
64500;SDS011;50874;24.150;-110.320;2023-07-20T04:03:38;11.05;;;3.67;;
64500;SDS011;50874;24.150;-110.320;2023-07-20T04:06:05;13.52;;;4.25;;
64500;SDS011;50874;24.150;-110.320;2023-07-20T04:08:31;17.42;;;4.10;;
64500;SDS011;50874;24.150;-110.320;2023-07-20T04:10:58;15.50;;;3.58;;
64500;SDS011;50874;24.150;-110.320;2023-07-20T04:13:27;11.32;;;3.90;;
64500;SDS011;50874;24.150;-110.320;2023-07-20T04:15:54;10.77;;;3.95;;
64500;SDS011;50874;24.150;-110.320;2023-07-20T04:18:20;12.00;;;4.28;;
64500;SDS011;50874;24.150;-110.320;2023-07-20T04:20:47;15.57;;;4.10;;
64500;SDS011;50874;24.150;-110.320;2023-07-20T04:23:13;7.53;;;4.30;;
64500;SDS011;50874;24.150;-110.320;2023-07-20T04:25:40;17.20;;;4.53;;
64500;SDS011;50874;24.150;-110.320;2023-07-20T04:28:07;14.02;;;3.55;;
64500;SDS011;50874;24.150;-110.320;2023-07-20T04:30:36;12.77;;;4.53;;
64500;SDS011;50874;24.150;-110.320;2023-07-20T04:33:04;14.48;;;4.30;;
64500;SDS011;50874;24.150;-110.320;2023-07-20T04:35:47;12.85;;;4.15;;
64500;SDS011;50874;24.150;-110.320;2023-07-20T04:38:18;10.80;;;4.15;;
64500;SDS011;50874;24.150;-110.320;2023-07-20T04:40:49;12.57;;;4.78;;
64500;SDS011;50874;24.150;-110.320;2023-07-20T04:43:16;12.05;;;4.20;;
64500;SDS011;50874;24.150;-110.320;2023-07-20T04:45:43;11.85;;;4.93;;
64500;SDS011;50874;24.150;-110.320;2023-07-20T04:48:10;14.80;;;5.15;;
64500;SDS011;50874;24.150;-110.320;2023-07-20T04:50:40;10.90;;;4.47;;
64500;SDS011;50874;24.150;-110.320;2023-07-20T04:53:08;9.05;;;4.22;;
64500;SDS011;50874;24.150;-110.320;2023-07-20T04:55:38;15.38;;;5.00;;
64500;SDS011;50874;24.150;-110.320;2023-07-20T04:58:06;14.80;;;4.72;;
64500;SDS011;50874;24.150;-110.320;2023-07-20T05:00:33;12.00;;;3.80;;
64500;SDS011;50874;24.150;-110.320;2023-07-20T05:03:00;16.38;;;5.13;;
64500;SDS011;50874;24.150;-110.320;2023-07-20T05:05:26;13.10;;;4.50;;
64500;SDS011;50874;24.150;-110.320;2023-07-20T05:07:53;14.05;;;4.35;;
64500;SDS011;50874;24.150;-110.320;2023-07-20T05:10:19;7.90;;;4.00;;
64500;SDS011;50874;24.150;-110.320;2023-07-20T05:12:46;16.00;;;5.07;;
64500;SDS011;50874;24.150;-110.320;2023-07-20T05:15:12;12.50;;;4.82;;
64500;SDS011;50874;24.150;-110.320;2023-07-20T05:17:39;13.80;;;5.05;;
64500;SDS011;50874;24.150;-110.320;2023-07-20T05:20:06;18.88;;;4.47;;
64500;SDS011;50874;24.150;-110.320;2023-07-20T05:22:36;10.32;;;4.53;;
64500;SDS011;50874;24.150;-110.320;2023-07-20T05:25:08;15.80;;;4.75;;
64500;SDS011;50874;24.150;-110.320;2023-07-20T05:27:38;11.52;;;4.57;;
64500;SDS011;50874;24.150;-110.320;2023-07-20T05:30:05;14.13;;;4.60;;
64500;SDS011;50874;24.150;-110.320;2023-07-20T05:32:33;15.73;;;4.93;;
64500;SDS011;50874;24.150;-110.320;2023-07-20T05:34:59;10.55;;;4.53;;
64500;SDS011;50874;24.150;-110.320;2023-07-20T05:37:26;14.50;;;3.97;;
64500;SDS011;50874;24.150;-110.320;2023-07-20T05:39:52;15.45;;;4.05;;
64500;SDS011;50874;24.150;-110.320;2023-07-20T05:42:19;12.55;;;5.20;;
64500;SDS011;50874;24.150;-110.320;2023-07-20T05:44:45;10.77;;;4.40;;
64500;SDS011;50874;24.150;-110.320;2023-07-20T05:47:13;16.90;;;5.47;;
64500;SDS011;50874;24.150;-110.320;2023-07-20T05:49:39;18.33;;;4.45;;
64500;SDS011;50874;24.150;-110.320;2023-07-20T05:52:06;10.98;;;4.43;;
64500;SDS011;50874;24.150;-110.320;2023-07-20T05:54:33;14.25;;;4.90;;
64500;SDS011;50874;24.150;-110.320;2023-07-20T05:56:59;11.60;;;4.07;;
64500;SDS011;50874;24.150;-110.320;2023-07-20T05:59:26;16.73;;;4.80;;
64500;SDS011;50874;24.150;-110.320;2023-07-20T06:01:56;21.15;;;4.20;;
64500;SDS011;50874;24.150;-110.320;2023-07-20T06:04:23;8.32;;;4.45;;
64500;SDS011;50874;24.150;-110.320;2023-07-20T06:06:49;15.55;;;4.05;;
64500;SDS011;50874;24.150;-110.320;2023-07-20T06:09:16;13.88;;;4.97;;
64500;SDS011;50874;24.150;-110.320;2023-07-20T06:11:42;13.90;;;4.93;;
64500;SDS011;50874;24.150;-110.320;2023-07-20T06:14:09;16.60;;;4.97;;
64500;SDS011;50874;24.150;-110.320;2023-07-20T06:16:36;14.68;;;4.85;;
64500;SDS011;50874;24.150;-110.320;2023-07-20T06:19:02;18.98;;;4.90;;
64500;SDS011;50874;24.150;-110.320;2023-07-20T06:21:29;13.10;;;4.43;;
64500;SDS011;50874;24.150;-110.320;2023-07-20T06:23:55;18.48;;;5.72;;
64500;SDS011;50874;24.150;-110.320;2023-07-20T06:26:22;11.55;;;5.13;;
64500;SDS011;50874;24.150;-110.320;2023-07-20T06:28:48;16.05;;;4.45;;
64500;SDS011;50874;24.150;-110.320;2023-07-20T06:31:15;17.58;;;4.97;;
64500;SDS011;50874;24.150;-110.320;2023-07-20T06:33:42;15.65;;;5.07;;
64500;SDS011;50874;24.150;-110.320;2023-07-20T06:36:09;14.18;;;4.95;;
64500;SDS011;50874;24.150;-110.320;2023-07-20T06:38:36;17.52;;;5.32;;
64500;SDS011;50874;24.150;-110.320;2023-07-20T06:41:03;19.08;;;4.95;;
64500;SDS011;50874;24.150;-110.320;2023-07-20T06:43:29;16.50;;;4.18;;
64500;SDS011;50874;24.150;-110.320;2023-07-20T06:45:55;10.40;;;5.25;;
64500;SDS011;50874;24.150;-110.320;2023-07-20T06:48:22;10.75;;;5.10;;
64500;SDS011;50874;24.150;-110.320;2023-07-20T06:50:48;10.93;;;4.47;;
64500;SDS011;50874;24.150;-110.320;2023-07-20T06:53:15;11.63;;;5.03;;
64500;SDS011;50874;24.150;-110.320;2023-07-20T06:55:42;18.83;;;4.38;;
64500;SDS011;50874;24.150;-110.320;2023-07-20T06:58:09;14.48;;;4.82;;
64500;SDS011;50874;24.150;-110.320;2023-07-20T07:00:37;16.48;;;4.68;;
64500;SDS011;50874;24.150;-110.320;2023-07-20T07:03:04;16.13;;;5.53;;
64500;SDS011;50874;24.150;-110.320;2023-07-20T07:05:31;19.95;;;5.50;;
64500;SDS011;50874;24.150;-110.320;2023-07-20T07:07:57;10.88;;;4.70;;
64500;SDS011;50874;24.150;-110.320;2023-07-20T07:10:24;13.43;;;4.70;;
64500;SDS011;50874;24.150;-110.320;2023-07-20T07:12:50;11.00;;;4.75;;
64500;SDS011;50874;24.150;-110.320;2023-07-20T07:15:16;18.05;;;4.30;;
64500;SDS011;50874;24.150;-110.320;2023-07-20T07:17:43;12.57;;;4.65;;
64500;SDS011;50874;24.150;-110.320;2023-07-20T07:20:09;16.65;;;4.72;;
64500;SDS011;50874;24.150;-110.320;2023-07-20T07:22:36;7.88;;;4.20;;
64500;SDS011;50874;24.150;-110.320;2023-07-20T07:25:03;16.58;;;4.95;;
64500;SDS011;50874;24.150;-110.320;2023-07-20T07:27:29;11.75;;;4.55;;
64500;SDS011;50874;24.150;-110.320;2023-07-20T07:29:56;11.07;;;4.82;;
64500;SDS011;50874;24.150;-110.320;2023-07-20T07:32:23;13.35;;;4.10;;
64500;SDS011;50874;24.150;-110.320;2023-07-20T07:34:50;12.52;;;4.72;;
64500;SDS011;50874;24.150;-110.320;2023-07-20T07:37:16;14.05;;;3.78;;
64500;SDS011;50874;24.150;-110.320;2023-07-20T07:39:45;9.98;;;4.10;;
64500;SDS011;50874;24.150;-110.320;2023-07-20T07:42:12;12.65;;;4.40;;
64500;SDS011;50874;24.150;-110.320;2023-07-20T07:44:38;10.30;;;4.28;;
64500;SDS011;50874;24.150;-110.320;2023-07-20T07:47:05;13.30;;;4.65;;
64500;SDS011;50874;24.150;-110.320;2023-07-20T07:49:31;7.88;;;4.38;;
64500;SDS011;50874;24.150;-110.320;2023-07-20T07:51:58;12.27;;;4.32;;
64500;SDS011;50874;24.150;-110.320;2023-07-20T07:54:27;10.57;;;4.97;;
64500;SDS011;50874;24.150;-110.320;2023-07-20T07:56:54;10.43;;;4.15;;
64500;SDS011;50874;24.150;-110.320;2023-07-20T07:59:21;11.20;;;4.10;;
64500;SDS011;50874;24.150;-110.320;2023-07-20T08:01:48;11.63;;;4.20;;
64500;SDS011;50874;24.150;-110.320;2023-07-20T08:04:14;8.85;;;4.20;;
64500;SDS011;50874;24.150;-110.320;2023-07-20T08:06:41;15.43;;;5.03;;
64500;SDS011;50874;24.150;-110.320;2023-07-20T08:09:07;14.38;;;4.80;;
64500;SDS011;50874;24.150;-110.320;2023-07-20T08:11:33;14.73;;;5.28;;
64500;SDS011;50874;24.150;-110.320;2023-07-20T08:14:00;13.77;;;5.30;;
64500;SDS011;50874;24.150;-110.320;2023-07-20T08:16:27;11.77;;;4.47;;
64500;SDS011;50874;24.150;-110.320;2023-07-20T08:18:54;14.60;;;4.72;;
64500;SDS011;50874;24.150;-110.320;2023-07-20T08:21:21;12.07;;;4.43;;
64500;SDS011;50874;24.150;-110.320;2023-07-20T08:23:47;17.75;;;5.72;;
64500;SDS011;50874;24.150;-110.320;2023-07-20T08:26:14;15.13;;;4.82;;
64500;SDS011;50874;24.150;-110.320;2023-07-20T08:28:40;14.85;;;5.97;;
64500;SDS011;50874;24.150;-110.320;2023-07-20T08:31:07;10.20;;;4.57;;
64500;SDS011;50874;24.150;-110.320;2023-07-20T08:33:34;10.70;;;4.63;;
64500;SDS011;50874;24.150;-110.320;2023-07-20T08:36:01;15.20;;;4.88;;
64500;SDS011;50874;24.150;-110.320;2023-07-20T08:38:28;15.50;;;4.72;;
64500;SDS011;50874;24.150;-110.320;2023-07-20T08:40:55;8.68;;;4.85;;
64500;SDS011;50874;24.150;-110.320;2023-07-20T08:43:22;10.20;;;4.65;;
64500;SDS011;50874;24.150;-110.320;2023-07-20T08:45:52;16.42;;;5.60;;
64500;SDS011;50874;24.150;-110.320;2023-07-20T08:48:21;15.40;;;5.18;;
64500;SDS011;50874;24.150;-110.320;2023-07-20T08:50:49;11.68;;;5.05;;
64500;SDS011;50874;24.150;-110.320;2023-07-20T08:53:21;13.07;;;5.13;;
64500;SDS011;50874;24.150;-110.320;2023-07-20T08:55:48;13.27;;;5.07;;
64500;SDS011;50874;24.150;-110.320;2023-07-20T08:58:20;16.80;;;5.30;;
64500;SDS011;50874;24.150;-110.320;2023-07-20T09:00:49;17.73;;;5.45;;
64500;SDS011;50874;24.150;-110.320;2023-07-20T09:03:16;13.52;;;4.65;;
64500;SDS011;50874;24.150;-110.320;2023-07-20T09:05:44;15.90;;;4.95;;
64500;SDS011;50874;24.150;-110.320;2023-07-20T09:08:11;10.63;;;4.80;;
64500;SDS011;50874;24.150;-110.320;2023-07-20T09:10:38;15.45;;;6.45;;
64500;SDS011;50874;24.150;-110.320;2023-07-20T09:13:04;11.55;;;4.55;;
64500;SDS011;50874;24.150;-110.320;2023-07-20T09:15:31;14.20;;;4.60;;
64500;SDS011;50874;24.150;-110.320;2023-07-20T09:18:00;15.38;;;5.15;;
64500;SDS011;50874;24.150;-110.320;2023-07-20T09:20:30;15.32;;;4.70;;
64500;SDS011;50874;24.150;-110.320;2023-07-20T09:23:04;13.00;;;5.10;;
64500;SDS011;50874;24.150;-110.320;2023-07-20T09:25:31;20.20;;;5.40;;
64500;SDS011;50874;24.150;-110.320;2023-07-20T09:27:59;16.75;;;5.65;;
64500;SDS011;50874;24.150;-110.320;2023-07-20T09:30:29;13.82;;;5.03;;
64500;SDS011;50874;24.150;-110.320;2023-07-20T09:32:55;14.60;;;4.70;;
64500;SDS011;50874;24.150;-110.320;2023-07-20T09:35:22;13.57;;;5.00;;
64500;SDS011;50874;24.150;-110.320;2023-07-20T09:37:58;9.65;;;4.70;;
64500;SDS011;50874;24.150;-110.320;2023-07-20T09:40:26;19.98;;;5.53;;
64500;SDS011;50874;24.150;-110.320;2023-07-20T09:42:53;16.83;;;4.82;;
64500;SDS011;50874;24.150;-110.320;2023-07-20T09:45:29;15.45;;;5.10;;
64500;SDS011;50874;24.150;-110.320;2023-07-20T09:48:05;17.10;;;5.13;;
64500;SDS011;50874;24.150;-110.320;2023-07-20T09:50:41;14.43;;;5.13;;
64500;SDS011;50874;24.150;-110.320;2023-07-20T09:53:13;15.45;;;5.72;;
64500;SDS011;50874;24.150;-110.320;2023-07-20T09:55:43;23.33;;;6.63;;
64500;SDS011;50874;24.150;-110.320;2023-07-20T09:58:11;12.52;;;6.00;;
64500;SDS011;50874;24.150;-110.320;2023-07-20T10:00:38;14.27;;;4.93;;
64500;SDS011;50874;24.150;-110.320;2023-07-20T10:03:06;10.13;;;5.60;;
64500;SDS011;50874;24.150;-110.320;2023-07-20T10:05:34;15.00;;;5.03;;
64500;SDS011;50874;24.150;-110.320;2023-07-20T10:08:05;11.57;;;4.97;;
64500;SDS011;50874;24.150;-110.320;2023-07-20T10:10:36;12.80;;;5.35;;
64500;SDS011;50874;24.150;-110.320;2023-07-20T10:13:09;13.90;;;5.35;;
64500;SDS011;50874;24.150;-110.320;2023-07-20T10:15:57;15.23;;;4.90;;
64500;SDS011;50874;24.150;-110.320;2023-07-20T10:18:30;13.40;;;5.22;;
64500;SDS011;50874;24.150;-110.320;2023-07-20T10:21:03;12.23;;;5.25;;
64500;SDS011;50874;24.150;-110.320;2023-07-20T10:23:35;7.72;;;4.07;;
64500;SDS011;50874;24.150;-110.320;2023-07-20T10:26:03;15.23;;;5.30;;
64500;SDS011;50874;24.150;-110.320;2023-07-20T10:28:30;12.45;;;5.55;;
64500;SDS011;50874;24.150;-110.320;2023-07-20T10:30:57;16.30;;;5.22;;
64500;SDS011;50874;24.150;-110.320;2023-07-20T10:33:24;12.27;;;4.93;;
64500;SDS011;50874;24.150;-110.320;2023-07-20T10:35:58;17.35;;;4.88;;
64500;SDS011;50874;24.150;-110.320;2023-07-20T10:38:52;20.30;;;5.63;;
64500;SDS011;50874;24.150;-110.320;2023-07-20T10:41:34;13.50;;;4.72;;
64500;SDS011;50874;24.150;-110.320;2023-07-20T10:44:02;13.38;;;5.57;;
64500;SDS011;50874;24.150;-110.320;2023-07-20T10:49:06;16.45;;;6.45;;
64500;SDS011;50874;24.150;-110.320;2023-07-20T10:51:40;17.73;;;6.88;;
64500;SDS011;50874;24.150;-110.320;2023-07-20T10:56:43;22.15;;;5.90;;
64500;SDS011;50874;24.150;-110.320;2023-07-20T10:59:19;19.70;;;6.00;;
64500;SDS011;50874;24.150;-110.320;2023-07-20T11:02:07;13.75;;;5.25;;
64500;SDS011;50874;24.150;-110.320;2023-07-20T11:04:43;18.30;;;5.80;;
64500;SDS011;50874;24.150;-110.320;2023-07-20T11:07:56;17.67;;;5.80;;
64500;SDS011;50874;24.150;-110.320;2023-07-20T11:10:15;12.07;;;5.13;;
64500;SDS011;50874;24.150;-110.320;2023-07-20T11:13:15;17.92;;;5.75;;
64500;SDS011;50874;24.150;-110.320;2023-07-20T11:16:08;14.15;;;6.00;;
64500;SDS011;50874;24.150;-110.320;2023-07-20T11:18:35;14.15;;;5.72;;
64500;SDS011;50874;24.150;-110.320;2023-07-20T11:21:06;16.63;;;5.80;;
64500;SDS011;50874;24.150;-110.320;2023-07-20T11:23:34;13.18;;;6.10;;
64500;SDS011;50874;24.150;-110.320;2023-07-20T11:26:04;15.07;;;5.32;;
64500;SDS011;50874;24.150;-110.320;2023-07-20T11:28:31;16.83;;;5.50;;
64500;SDS011;50874;24.150;-110.320;2023-07-20T11:30:59;16.33;;;5.40;;
64500;SDS011;50874;24.150;-110.320;2023-07-20T11:33:26;18.90;;;6.72;;
64500;SDS011;50874;24.150;-110.320;2023-07-20T11:35:52;15.70;;;5.35;;
64500;SDS011;50874;24.150;-110.320;2023-07-20T11:38:19;21.42;;;5.93;;
64500;SDS011;50874;24.150;-110.320;2023-07-20T11:40:46;18.45;;;6.28;;
64500;SDS011;50874;24.150;-110.320;2023-07-20T11:43:12;17.63;;;6.00;;
64500;SDS011;50874;24.150;-110.320;2023-07-20T11:45:39;30.70;;;6.10;;
64500;SDS011;50874;24.150;-110.320;2023-07-20T11:48:06;15.60;;;6.13;;
64500;SDS011;50874;24.150;-110.320;2023-07-20T11:50:37;18.75;;;6.18;;
64500;SDS011;50874;24.150;-110.320;2023-07-20T11:53:05;15.45;;;6.25;;
64500;SDS011;50874;24.150;-110.320;2023-07-20T11:55:32;19.80;;;6.50;;
64500;SDS011;50874;24.150;-110.320;2023-07-20T12:00:28;14.85;;;5.70;;
64500;SDS011;50874;24.150;-110.320;2023-07-20T12:02:55;18.48;;;5.57;;
64500;SDS011;50874;24.150;-110.320;2023-07-20T12:05:24;18.00;;;5.63;;
64500;SDS011;50874;24.150;-110.320;2023-07-20T12:07:54;16.95;;;5.40;;
64500;SDS011;50874;24.150;-110.320;2023-07-20T12:10:27;22.10;;;6.60;;
64500;SDS011;50874;24.150;-110.320;2023-07-20T12:12:54;18.20;;;6.72;;
64500;SDS011;50874;24.150;-110.320;2023-07-20T12:15:26;14.18;;;5.45;;
64500;SDS011;50874;24.150;-110.320;2023-07-20T12:17:55;18.52;;;5.85;;
64500;SDS011;50874;24.150;-110.320;2023-07-20T12:23:02;18.35;;;5.72;;
64500;SDS011;50874;24.150;-110.320;2023-07-20T12:25:34;18.08;;;6.30;;
64500;SDS011;50874;24.150;-110.320;2023-07-20T12:28:07;19.15;;;6.22;;
64500;SDS011;50874;24.150;-110.320;2023-07-20T12:30:37;14.45;;;5.72;;
64500;SDS011;50874;24.150;-110.320;2023-07-20T12:33:06;15.20;;;5.82;;
64500;SDS011;50874;24.150;-110.320;2023-07-20T12:35:33;17.75;;;5.78;;
64500;SDS011;50874;24.150;-110.320;2023-07-20T12:38:00;15.00;;;5.25;;
64500;SDS011;50874;24.150;-110.320;2023-07-20T12:40:27;20.40;;;6.32;;
64500;SDS011;50874;24.150;-110.320;2023-07-20T12:42:53;17.65;;;6.25;;
64500;SDS011;50874;24.150;-110.320;2023-07-20T12:45:20;20.40;;;6.65;;
64500;SDS011;50874;24.150;-110.320;2023-07-20T12:47:47;15.98;;;6.68;;
64500;SDS011;50874;24.150;-110.320;2023-07-20T12:50:14;23.63;;;6.28;;
64500;SDS011;50874;24.150;-110.320;2023-07-20T12:52:40;16.27;;;5.15;;
64500;SDS011;50874;24.150;-110.320;2023-07-20T12:55:07;14.75;;;5.32;;
64500;SDS011;50874;24.150;-110.320;2023-07-20T12:57:35;15.45;;;5.85;;
64500;SDS011;50874;24.150;-110.320;2023-07-20T13:00:06;15.07;;;5.78;;
64500;SDS011;50874;24.150;-110.320;2023-07-20T13:02:34;18.55;;;5.85;;
64500;SDS011;50874;24.150;-110.320;2023-07-20T13:05:01;16.55;;;5.50;;
64500;SDS011;50874;24.150;-110.320;2023-07-20T13:07:29;20.60;;;6.07;;
64500;SDS011;50874;24.150;-110.320;2023-07-20T13:09:57;16.42;;;5.45;;
64500;SDS011;50874;24.150;-110.320;2023-07-20T13:12:27;21.60;;;5.32;;
64500;SDS011;50874;24.150;-110.320;2023-07-20T13:14:55;14.90;;;6.00;;
64500;SDS011;50874;24.150;-110.320;2023-07-20T13:17:22;18.25;;;5.68;;
64500;SDS011;50874;24.150;-110.320;2023-07-20T13:19:49;18.80;;;5.57;;
64500;SDS011;50874;24.150;-110.320;2023-07-20T13:22:15;22.27;;;5.97;;
64500;SDS011;50874;24.150;-110.320;2023-07-20T13:24:43;18.83;;;5.95;;
64500;SDS011;50874;24.150;-110.320;2023-07-20T13:27:14;20.10;;;6.38;;
64500;SDS011;50874;24.150;-110.320;2023-07-20T13:29:44;20.88;;;6.45;;
64500;SDS011;50874;24.150;-110.320;2023-07-20T13:32:14;20.55;;;6.22;;
64500;SDS011;50874;24.150;-110.320;2023-07-20T13:34:46;10.52;;;5.68;;
64500;SDS011;50874;24.150;-110.320;2023-07-20T13:37:13;17.70;;;7.35;;
64500;SDS011;50874;24.150;-110.320;2023-07-20T13:39:41;13.27;;;5.07;;
64500;SDS011;50874;24.150;-110.320;2023-07-20T13:42:08;15.85;;;5.28;;
64500;SDS011;50874;24.150;-110.320;2023-07-20T13:44:36;16.65;;;5.30;;
64500;SDS011;50874;24.150;-110.320;2023-07-20T13:47:03;16.27;;;6.22;;
64500;SDS011;50874;24.150;-110.320;2023-07-20T13:49:32;19.08;;;5.30;;
64500;SDS011;50874;24.150;-110.320;2023-07-20T13:51:59;18.35;;;5.32;;
64500;SDS011;50874;24.150;-110.320;2023-07-20T13:54:26;19.10;;;5.43;;
64500;SDS011;50874;24.150;-110.320;2023-07-20T13:56:52;18.38;;;5.57;;
64500;SDS011;50874;24.150;-110.320;2023-07-20T13:59:19;21.42;;;5.82;;
64500;SDS011;50874;24.150;-110.320;2023-07-20T14:01:45;15.57;;;5.53;;
64500;SDS011;50874;24.150;-110.320;2023-07-20T14:04:12;12.95;;;4.93;;
64500;SDS011;50874;24.150;-110.320;2023-07-20T14:06:39;13.73;;;5.57;;
64500;SDS011;50874;24.150;-110.320;2023-07-20T14:09:06;16.02;;;5.85;;
64500;SDS011;50874;24.150;-110.320;2023-07-20T14:11:32;12.95;;;4.80;;
64500;SDS011;50874;24.150;-110.320;2023-07-20T14:13:59;12.00;;;5.03;;
64500;SDS011;50874;24.150;-110.320;2023-07-20T14:16:25;16.90;;;5.32;;
64500;SDS011;50874;24.150;-110.320;2023-07-20T14:18:52;20.60;;;5.18;;